Time;durP1;ratioP1;P1;durP2;ratioP2;P2;SDS_P1;SDS_P2;PMS_P1;PMS_P2;Temp;Humidity;BMP_temperature;BMP_pressure;BME280_temperature;BME280_humidity;BME280_pressure;Samples;Min_cycle;Max_cycle;Signal;HPM_P1;HPM_P2
2022/05/04 00:01:43;;;;;;;69.57;51.15;;;17.60;57.80;;;;;;4920466;28;95703;-66
2022/05/04 00:04:08;;;;;;;69.43;50.55;;;17.60;58.50;;;;;;4931886;28;95360;-66
2022/05/04 00:06:34;;;;;;;69.57;50.80;;;17.60;57.90;;;;;;4923409;28;96468;-66
2022/05/04 00:09:00;;;;;;;70.43;50.95;;;17.60;57.80;;;;;;4927432;28;100980;-66
2022/05/04 00:11:25;;;;;;;69.53;50.97;;;17.60;57.90;;;;;;4927917;28;95890;-66
2022/05/04 00:13:51;;;;;;;69.93;51.38;;;17.60;57.80;;;;;;4932562;28;95321;-66
2022/05/04 00:16:17;;;;;;;69.00;51.00;;;17.60;57.90;;;;;;4927321;28;95805;-66
2022/05/04 00:18:42;;;;;;;68.97;50.95;;;17.60;57.70;;;;;;4927504;28;95386;-67
2022/05/04 00:21:08;;;;;;;69.82;51.17;;;17.60;58.00;;;;;;4920859;28;96529;-66
2022/05/04 00:23:34;;;;;;;69.25;50.95;;;17.60;57.90;;;;;;4926614;28;97409;-66
2022/05/04 00:25:59;;;;;;;68.07;50.72;;;17.60;57.90;;;;;;4927437;28;95755;-66
2022/05/04 00:28:25;;;;;;;70.32;50.88;;;17.60;57.90;;;;;;4937508;28;95307;-66
2022/05/04 00:30:52;;;;;;;68.35;50.78;;;17.60;57.70;;;;;;4928347;28;101695;-66
2022/05/04 00:33:18;;;;;;;68.88;50.97;;;17.60;57.70;;;;;;4919868;28;96039;-65
2022/05/04 00:35:44;;;;;;;69.28;50.70;;;17.50;57.70;;;;;;4936263;28;96417;-66
2022/05/04 00:38:09;;;;;;;69.95;51.20;;;17.50;57.70;;;;;;4927780;28;94511;-66
2022/05/04 00:40:35;;;;;;;68.88;50.85;;;17.50;57.80;;;;;;4922560;28;98264;-66
2022/05/04 00:43:01;;;;;;;69.68;51.05;;;17.50;57.70;;;;;;4924501;28;95393;-66
2022/05/04 00:45:27;;;;;;;68.53;50.72;;;17.50;57.80;;;;;;4926548;28;96192;-66
2022/05/04 00:47:53;;;;;;;70.10;51.38;;;17.50;57.70;;;;;;4926468;28;95728;-66
2022/05/04 00:50:19;;;;;;;69.75;50.78;;;17.50;57.80;;;;;;4924474;28;95114;-66
2022/05/04 00:52:45;;;;;;;67.82;50.47;;;17.50;57.70;;;;;;4932136;28;95175;-66
2022/05/04 00:55:12;;;;;;;69.18;51.03;;;17.50;57.90;;;;;;4931196;28;95787;-66
2022/05/04 01:00:25;;;;;;;69.85;50.30;;;17.50;57.80;;;;;;4936761;28;94826;-66
2022/05/04 01:02:51;;;;;;;69.85;50.55;;;17.40;57.70;;;;;;4927767;28;94885;-66
2022/05/04 01:05:17;;;;;;;69.15;50.65;;;17.40;57.70;;;;;;4938139;28;95191;-66
2022/05/04 01:07:44;;;;;;;69.32;50.80;;;17.40;57.60;;;;;;4928116;28;96224;-66
2022/05/04 01:10:12;;;;;;;68.47;50.45;;;17.40;57.80;;;;;;4927172;28;96802;-66
2022/05/04 01:12:52;;;;;;;68.60;50.42;;;17.40;57.80;;;;;;4930121;28;95581;-66
2022/05/04 01:15:19;;;;;;;68.88;50.72;;;17.40;57.70;;;;;;4932437;28;95193;-66
2022/05/04 01:17:47;;;;;;;70.93;51.00;;;17.40;57.70;;;;;;4931323;28;96257;-66
2022/05/04 01:20:14;;;;;;;69.07;50.50;;;17.40;57.90;;;;;;4934601;28;94618;-66
2022/05/04 01:22:40;;;;;;;69.43;51.05;;;17.30;58.00;;;;;;4934371;28;94732;-66
2022/05/04 01:25:06;;;;;;;67.20;50.70;;;17.40;57.80;;;;;;4931124;28;95648;-66
2022/05/04 01:27:32;;;;;;;67.38;50.53;;;17.30;57.70;;;;;;4932144;28;94875;-66
2022/05/04 01:29:58;;;;;;;67.80;50.38;;;17.30;57.90;;;;;;4932771;28;95022;-66
2022/05/04 01:32:25;;;;;;;67.97;50.65;;;17.30;57.70;;;;;;4932050;28;95602;-66
2022/05/04 01:34:51;;;;;;;68.13;50.72;;;17.30;57.80;;;;;;4930852;28;96300;-66
2022/05/04 01:37:16;;;;;;;69.55;50.95;;;17.30;57.80;;;;;;4933712;28;96797;-66
2022/05/04 01:39:42;;;;;;;67.70;50.10;;;17.30;57.90;;;;;;4923955;28;96370;-66
2022/05/04 01:42:15;;;;;;;66.80;50.50;;;17.30;58.50;;;;;;4929160;28;95225;-66
2022/05/04 01:44:43;;;;;;;67.43;50.60;;;17.20;57.80;;;;;;4925412;28;95614;-66
2022/05/04 01:47:09;;;;;;;68.15;50.53;;;17.30;57.90;;;;;;4924332;28;98255;-67
2022/05/04 01:49:36;;;;;;;67.05;50.35;;;17.20;57.90;;;;;;4930941;28;94920;-67
2022/05/04 01:52:01;;;;;;;67.40;50.55;;;17.20;57.90;;;;;;4925265;28;93991;-65
2022/05/04 01:54:27;;;;;;;67.38;50.55;;;17.20;57.80;;;;;;4923388;28;95630;-66
2022/05/04 01:56:53;;;;;;;69.75;51.05;;;17.20;57.90;;;;;;4934277;28;97703;-66
2022/05/04 01:59:18;;;;;;;67.95;50.25;;;17.20;57.90;;;;;;4921005;28;95968;-66
2022/05/04 02:01:44;;;;;;;67.95;50.13;;;17.20;57.80;;;;;;4917712;28;99749;-66
2022/05/04 02:04:10;;;;;;;69.05;50.53;;;17.20;57.80;;;;;;4915704;28;96255;-66
2022/05/04 02:06:37;;;;;;;67.85;50.55;;;17.20;58.00;;;;;;4931385;28;96335;-66
2022/05/04 02:09:03;;;;;;;67.05;50.13;;;17.20;57.80;;;;;;4932257;28;95630;-66
2022/05/04 02:11:32;;;;;;;68.20;50.45;;;17.10;57.90;;;;;;4925859;28;98532;-65
2022/05/04 02:13:58;;;;;;;66.03;49.88;;;17.20;58.00;;;;;;4924692;28;97583;-66
2022/05/04 02:16:23;;;;;;;67.75;50.55;;;17.20;57.90;;;;;;4928626;28;95323;-66
2022/05/04 02:18:49;;;;;;;67.40;49.97;;;17.20;57.90;;;;;;4924342;28;95905;-67
2022/05/04 02:21:15;;;;;;;67.28;50.00;;;17.10;57.90;;;;;;4934570;28;95526;-66
2022/05/04 02:23:40;;;;;;;67.47;50.28;;;17.10;58.20;;;;;;4922093;28;99315;-66
2022/05/04 02:26:06;;;;;;;68.03;50.65;;;17.10;57.80;;;;;;4931754;28;97868;-67
2022/05/04 02:28:32;;;;;;;68.05;50.22;;;17.10;57.90;;;;;;4935761;28;95762;-66
2022/05/04 02:30:57;;;;;;;67.80;49.88;;;17.10;58.10;;;;;;4939502;28;95266;-66
2022/05/04 02:33:23;;;;;;;68.18;50.45;;;17.00;57.90;;;;;;4915787;28;101890;-66
2022/05/04 02:38:33;;;;;;;67.00;50.28;;;17.10;58.10;;;;;;4922792;28;95375;-66
2022/05/04 02:40:58;;;;;;;67.20;50.50;;;17.00;57.90;;;;;;4930389;28;94223;-66
2022/05/04 02:43:26;;;;;;;67.72;50.42;;;17.00;58.10;;;;;;4929884;28;99543;-66
2022/05/04 02:45:52;;;;;;;69.15;50.58;;;17.00;57.90;;;;;;4935206;28;95076;-66
2022/05/04 02:48:17;;;;;;;68.50;50.25;;;17.00;58.10;;;;;;4932299;28;95961;-67
2022/05/04 02:50:43;;;;;;;67.28;50.47;;;17.00;58.00;;;;;;4928414;28;95438;-66
2022/05/04 02:53:09;;;;;;;67.32;50.30;;;17.00;58.00;;;;;;4929368;28;95260;-66
2022/05/04 02:55:34;;;;;;;67.68;50.63;;;17.00;58.10;;;;;;4933608;28;98185;-66
2022/05/04 02:58:00;;;;;;;68.00;50.35;;;16.90;58.10;;;;;;4923732;28;95382;-66
2022/05/04 03:00:26;;;;;;;67.20;50.33;;;16.90;58.10;;;;;;4937418;28;94954;-66
2022/05/04 03:02:54;;;;;;;67.68;50.40;;;16.90;57.90;;;;;;4928616;28;95776;-66
2022/05/04 03:05:20;;;;;;;67.75;50.50;;;16.90;58.00;;;;;;4926091;28;97655;-66
2022/05/04 03:07:46;;;;;;;66.15;49.95;;;16.90;58.10;;;;;;4932642;28;95776;-66
2022/05/04 03:10:13;;;;;;;67.68;50.55;;;16.90;58.00;;;;;;4922517;28;95097;-66
2022/05/04 03:12:39;;;;;;;69.53;50.60;;;16.90;58.00;;;;;;4926253;28;99176;-66
2022/05/04 03:15:06;;;;;;;67.22;50.42;;;16.90;58.10;;;;;;4919626;28;95501;-66
2022/05/04 03:17:31;;;;;;;66.80;49.97;;;16.80;58.10;;;;;;4927830;28;95475;-66
2022/05/04 03:19:58;;;;;;;67.75;50.95;;;16.90;58.20;;;;;;4926179;28;95952;-66
2022/05/04 03:22:25;;;;;;;67.03;50.15;;;16.80;58.00;;;;;;4930727;28;95586;-66
2022/05/04 03:24:51;;;;;;;67.20;50.65;;;16.80;58.20;;;;;;4925926;28;99256;-67
2022/05/04 03:27:16;;;;;;;66.65;50.58;;;16.80;58.20;;;;;;4929581;28;94991;-66
2022/05/04 03:29:43;;;;;;;67.05;50.45;;;16.80;58.00;;;;;;4934585;28;95616;-66
2022/05/04 03:32:09;;;;;;;67.05;50.05;;;16.90;58.10;;;;;;4923358;28;95708;-66
2022/05/04 03:34:35;;;;;;;66.28;49.92;;;16.80;58.00;;;;;;4919603;28;95392;-66
2022/05/04 03:37:01;;;;;;;68.63;50.28;;;16.80;58.20;;;;;;4935459;28;96325;-66
2022/05/04 03:39:27;;;;;;;66.28;50.08;;;16.80;58.10;;;;;;4930682;28;95077;-66
2022/05/04 03:41:53;;;;;;;68.07;50.60;;;16.80;58.20;;;;;;4931008;28;96136;-66
2022/05/04 03:44:18;;;;;;;66.32;50.28;;;16.80;58.00;;;;;;4927252;28;96346;-66
2022/05/04 03:46:46;;;;;;;68.47;50.33;;;16.70;58.00;;;;;;4925113;28;95495;-65
2022/05/04 03:49:13;;;;;;;67.68;50.38;;;16.70;58.20;;;;;;4925655;28;99466;-66
2022/05/04 03:51:39;;;;;;;67.57;50.67;;;16.70;58.00;;;;;;4929442;28;96880;-66
2022/05/04 03:54:05;;;;;;;67.35;50.42;;;16.70;58.10;;;;;;4923776;28;95751;-66
2022/05/04 03:56:31;;;;;;;68.43;50.80;;;16.70;58.00;;;;;;4928918;28;94720;-66
2022/05/04 03:58:56;;;;;;;67.43;50.53;;;16.70;57.90;;;;;;4925552;28;95992;-66
2022/05/04 04:01:22;;;;;;;66.53;50.28;;;16.70;58.10;;;;;;4925497;28;97856;-66
2022/05/04 04:03:48;;;;;;;66.50;50.40;;;16.70;58.10;;;;;;4929170;28;98213;-66
2022/05/04 04:06:14;;;;;;;66.78;50.72;;;16.70;58.00;;;;;;4928682;28;95171;-67
2022/05/04 04:08:40;;;;;;;67.47;50.88;;;16.70;58.00;;;;;;4921633;28;95189;-66
2022/05/04 04:11:06;;;;;;;69.63;51.00;;;16.70;58.20;;;;;;4927770;28;96280;-66
2022/05/04 04:13:32;;;;;;;67.85;50.38;;;16.60;58.10;;;;;;4923178;28;96626;-66
2022/05/04 04:15:58;;;;;;;66.70;50.42;;;16.70;58.10;;;;;;4931231;28;95154;-66
2022/05/04 04:18:25;;;;;;;68.93;50.95;;;16.60;58.00;;;;;;4936558;28;96179;-66
2022/05/04 04:23:37;;;;;;;67.80;51.00;;;16.60;58.00;;;;;;4924190;28;96018;-66
2022/05/04 04:26:04;;;;;;;67.25;50.60;;;16.60;58.10;;;;;;4926718;28;96824;-65
2022/05/04 04:28:31;;;;;;;66.82;50.65;;;16.60;58.10;;;;;;4933072;28;95849;-66
2022/05/04 04:30:56;;;;;;;67.65;50.65;;;16.70;58.00;;;;;;4932585;28;99925;-66
2022/05/04 04:33:26;;;;;;;68.07;50.17;;;16.60;58.00;;;;;;4932191;28;94830;-67
2022/05/04 04:35:55;;;;;;;66.18;50.00;;;16.60;58.00;;;;;;4929142;28;96618;-66
2022/05/04 04:38:20;;;;;;;65.55;49.92;;;16.60;58.10;;;;;;4939951;28;94837;-66
2022/05/04 04:40:46;;;;;;;69.03;50.75;;;16.60;58.10;;;;;;4931970;28;95730;-66
2022/05/04 04:43:12;;;;;;;67.07;50.40;;;16.60;57.90;;;;;;4936069;28;94024;-66
2022/05/04 04:45:38;;;;;;;67.28;50.60;;;16.60;57.90;;;;;;4929785;28;95335;-67
2022/05/04 04:48:04;;;;;;;67.15;50.55;;;16.60;58.00;;;;;;4933606;28;95426;-66
2022/05/04 04:50:30;;;;;;;67.03;50.60;;;16.60;57.90;;;;;;4925515;28;98134;-66
2022/05/04 04:52:56;;;;;;;66.90;50.25;;;16.60;57.80;;;;;;4934769;28;95952;-66
2022/05/04 04:55:21;;;;;;;67.05;49.92;;;16.60;58.00;;;;;;4930507;28;95314;-65
2022/05/04 04:57:47;;;;;;;67.07;50.05;;;16.60;58.10;;;;;;4924522;28;95586;-66
2022/05/04 05:00:14;;;;;;;66.45;50.40;;;16.60;58.10;;;;;;4926793;28;95611;-65
2022/05/04 05:02:40;;;;;;;68.00;51.17;;;16.60;57.90;;;;;;4923651;28;95810;-67
2022/05/04 05:05:07;;;;;;;67.18;50.53;;;16.60;57.80;;;;;;4927852;28;97958;-65
2022/05/04 05:07:33;;;;;;;67.65;50.75;;;16.60;57.90;;;;;;4927627;28;93908;-65
2022/05/04 05:09:58;;;;;;;66.80;50.03;;;16.60;57.80;;;;;;4926007;28;96455;-65
2022/05/04 05:12:24;;;;;;;67.22;50.47;;;16.60;57.80;;;;;;4922327;28;95235;-64
2022/05/04 05:17:35;;;;;;;67.53;50.47;;;16.50;57.90;;;;;;4929885;28;97554;-66
2022/05/04 05:20:03;;;;;;;69.25;50.55;;;16.60;57.80;;;;;;4923900;28;97012;-65
2022/05/04 05:22:29;;;;;;;68.53;50.38;;;16.60;57.80;;;;;;4919645;28;95448;-65
2022/05/04 05:24:55;;;;;;;68.05;50.95;;;16.60;58.40;;;;;;4923443;28;99968;-66
2022/05/04 05:27:22;;;;;;;66.32;50.28;;;16.60;57.80;;;;;;4938584;28;94782;-65
2022/05/04 05:29:47;;;;;;;67.57;50.65;;;16.60;57.90;;;;;;4927451;28;97060;-64
2022/05/04 05:32:13;;;;;;;68.88;50.58;;;16.60;57.90;;;;;;4915643;28;95780;-67
2022/05/04 05:34:39;;;;;;;68.05;50.92;;;16.60;57.90;;;;;;4920883;28;97161;-66
2022/05/04 05:37:05;;;;;;;67.75;50.40;;;16.60;57.90;;;;;;4916917;28;97657;-67
2022/05/04 05:39:30;;;;;;;68.35;51.08;;;16.60;57.60;;;;;;4910066;28;96786;-67
2022/05/04 05:41:56;;;;;;;68.43;51.10;;;16.60;57.60;;;;;;4922185;28;96527;-67
2022/05/04 05:44:21;;;;;;;67.00;50.10;;;16.60;57.80;;;;;;4918967;28;95230;-67
2022/05/04 05:46:47;;;;;;;67.57;50.72;;;16.60;57.90;;;;;;4927881;28;95369;-67
2022/05/04 05:49:13;;;;;;;67.43;50.33;;;16.60;57.80;;;;;;4922322;28;98243;-68
2022/05/04 05:51:38;;;;;;;67.15;50.28;;;16.60;57.70;;;;;;4922616;28;96666;-67
2022/05/04 05:54:04;;;;;;;67.03;50.50;;;16.60;57.80;;;;;;4922820;28;95295;-67
2022/05/04 05:56:29;;;;;;;68.47;50.65;;;16.60;57.70;;;;;;4927248;28;96177;-67
2022/05/04 05:58:55;;;;;;;68.03;50.70;;;16.60;57.70;;;;;;4917874;28;97416;-67
2022/05/04 06:01:21;;;;;;;67.65;50.80;;;16.60;57.60;;;;;;4915786;28;96125;-66
2022/05/04 06:03:46;;;;;;;68.93;50.67;;;16.60;57.70;;;;;;4926991;28;97664;-66
2022/05/04 06:06:12;;;;;;;66.80;50.17;;;16.60;57.70;;;;;;4934672;28;95530;-67
2022/05/04 06:08:38;;;;;;;67.00;50.72;;;16.60;57.70;;;;;;4923655;28;95433;-66
2022/05/04 06:11:05;;;;;;;68.22;50.88;;;16.60;58.20;;;;;;4919362;28;95472;-67
2022/05/04 06:13:30;;;;;;;67.65;50.97;;;16.60;57.80;;;;;;4917731;28;95693;-67
2022/05/04 06:15:56;;;;;;;68.15;50.78;;;16.60;57.60;;;;;;4924722;28;97321;-70
2022/05/04 06:18:22;;;;;;;69.00;50.90;;;16.60;58.10;;;;;;4913962;28;95927;-72
2022/05/04 06:20:47;;;;;;;67.68;51.10;;;16.60;58.80;;;;;;4922244;28;94519;-73
2022/05/04 06:23:13;;;;;;;73.75;51.35;;;16.70;59.20;;;;;;4931659;28;95293;-73
2022/05/04 06:25:41;;;;;;;72.70;51.83;;;16.70;59.30;;;;;;4938118;28;95165;-74
2022/05/04 06:28:06;;;;;;;79.22;52.70;;;16.80;59.10;;;;;;4934127;28;96476;-75
2022/05/04 06:36:00;;;;;;;79.90;52.50;;;17.10;58.90;;;;;;4915967;28;95210;-74
2022/05/04 06:38:27;;;;;;;80.78;52.95;;;17.20;59.00;;;;;;4919803;28;96056;-74
2022/05/04 06:40:53;;;;;;;77.28;52.58;;;17.30;58.90;;;;;;4922706;28;95553;-73
2022/05/04 06:43:19;;;;;;;77.70;53.55;;;17.30;58.70;;;;;;4924448;28;94988;-73
2022/05/04 06:45:45;;;;;;;78.78;53.00;;;17.40;58.00;;;;;;4924965;28;95641;-74
2022/05/04 06:48:10;;;;;;;92.18;53.55;;;17.40;57.90;;;;;;4924859;28;95364;-74
2022/05/04 06:50:36;;;;;;;80.95;53.47;;;17.50;57.40;;;;;;4920569;28;96783;-74
2022/05/04 06:53:01;;;;;;;79.80;53.70;;;17.50;58.00;;;;;;4925852;28;99210;-74
2022/05/04 06:55:27;;;;;;;79.95;53.53;;;17.50;57.40;;;;;;4922607;28;95926;-76
2022/05/04 06:57:53;;;;;;;79.30;54.53;;;17.60;57.20;;;;;;4924206;28;96868;-75
2022/05/04 07:00:19;;;;;;;76.22;53.35;;;17.60;57.50;;;;;;4923413;28;97582;-74
2022/05/04 07:02:44;;;;;;;79.25;54.20;;;17.70;58.30;;;;;;4929424;28;97006;-74
2022/05/04 07:05:11;;;;;;;78.70;53.88;;;17.80;57.20;;;;;;4926608;28;95023;-72
2022/05/04 07:07:38;;;;;;;79.88;53.97;;;17.80;57.60;;;;;;4898786;28;98164;-73
2022/05/04 07:10:05;;;;;;;77.97;53.65;;;17.90;57.60;;;;;;4912878;28;94995;-72
2022/05/04 07:12:30;;;;;;;83.07;54.10;;;18.00;57.10;;;;;;4923160;28;98087;-74
2022/05/04 07:14:56;;;;;;;79.43;53.65;;;18.00;56.80;;;;;;4913674;28;96126;-72
2022/05/04 07:17:25;;;;;;;79.43;54.28;;;18.10;56.70;;;;;;4920259;28;97547;-72
2022/05/04 07:19:53;;;;;;;76.95;53.63;;;18.10;56.50;;;;;;4929063;28;95088;-73
2022/05/04 07:22:19;;;;;;;78.20;53.63;;;18.20;56.70;;;;;;4924693;28;97733;-73
2022/05/04 07:24:45;;;;;;;79.47;53.63;;;18.20;56.30;;;;;;4930708;28;97155;-73
2022/05/04 07:27:11;;;;;;;78.22;54.30;;;18.20;56.30;;;;;;4930008;28;95130;-73
2022/05/04 07:29:36;;;;;;;78.93;54.08;;;18.30;56.00;;;;;;4930118;28;95792;-74
2022/05/04 07:32:03;;;;;;;78.65;54.33;;;18.40;56.10;;;;;;4926212;28;95027;-73
2022/05/04 07:34:29;;;;;;;82.22;57.20;;;18.40;55.30;;;;;;4921369;28;95682;-73
2022/05/04 07:36:56;;;;;;;78.38;54.53;;;18.40;55.40;;;;;;4919177;28;95377;-74
2022/05/04 07:42:24;;;;;;;78.47;54.15;;;18.50;55.60;;;;;;4910470;28;97875;-75
2022/05/04 07:44:51;;;;;;;82.13;54.45;;;18.60;55.60;;;;;;4902650;28;101157;-75
2022/05/04 07:47:17;;;;;;;81.43;54.35;;;18.70;55.70;;;;;;4903293;28;95475;-76
2022/05/04 07:49:43;;;;;;;79.72;55.10;;;18.70;55.50;;;;;;4913315;28;96177;-77
2022/05/04 07:52:09;;;;;;;77.50;54.63;;;18.80;55.70;;;;;;4911736;28;96668;-76
2022/05/04 07:54:34;;;;;;;84.30;55.35;;;18.80;54.90;;;;;;4912998;28;96592;-75
2022/05/04 07:57:00;;;;;;;81.30;55.05;;;18.80;54.70;;;;;;4918384;28;96409;-75
2022/05/04 07:59:25;;;;;;;80.05;55.25;;;18.90;55.40;;;;;;4911778;28;97150;-75
2022/05/04 08:04:36;;;;;;;81.75;54.42;;;19.00;55.40;;;;;;4921314;28;95128;-76
2022/05/04 08:07:02;;;;;;;87.32;55.45;;;19.00;55.40;;;;;;4920388;28;97120;-76
2022/05/04 08:09:27;;;;;;;84.30;56.60;;;19.10;54.80;;;;;;4927325;28;96108;-75
2022/05/04 08:11:53;;;;;;;80.45;55.63;;;19.10;54.30;;;;;;4935281;28;95183;-75
2022/05/04 08:14:19;;;;;;;82.50;56.20;;;19.10;54.80;;;;;;4919832;28;97549;-75
2022/05/04 08:16:45;;;;;;;85.38;56.28;;;19.20;54.50;;;;;;4912075;28;96377;-76
2022/05/04 08:19:10;;;;;;;83.90;56.17;;;19.20;53.90;;;;;;4910303;28;96993;-75
2022/05/04 08:21:37;;;;;;;85.82;56.85;;;19.30;54.30;;;;;;4916390;28;97407;-76
2022/05/04 08:24:03;;;;;;;84.22;57.30;;;19.40;54.00;;;;;;4923555;28;94290;-76
2022/05/04 08:26:29;;;;;;;83.35;56.80;;;19.40;53.80;;;;;;4927787;28;97803;-76
2022/05/04 08:28:55;;;;;;;81.40;56.05;;;19.40;53.00;;;;;;4910540;28;100135;-75
2022/05/04 08:31:24;;;;;;;85.05;56.83;;;19.40;53.20;;;;;;4912142;28;96644;-74
2022/05/04 08:33:50;;;;;;;84.20;55.90;;;19.50;53.60;;;;;;4915436;28;97127;-74
2022/05/04 08:36:16;;;;;;;83.95;57.22;;;19.50;53.60;;;;;;4917119;28;96135;-75
2022/05/04 08:38:42;;;;;;;85.15;57.30;;;19.50;53.50;;;;;;4920482;28;96264;-75
2022/05/04 08:41:09;;;;;;;87.10;57.47;;;19.50;52.50;;;;;;4923103;28;97373;-75
2022/05/04 08:43:35;;;;;;;86.10;57.17;;;19.60;52.50;;;;;;4928272;28;95075;-74
2022/05/04 08:46:03;;;;;;;84.95;57.10;;;19.60;52.90;;;;;;4932320;28;96720;-75
2022/05/04 08:48:31;;;;;;;81.82;57.58;;;19.60;53.10;;;;;;4933137;28;95389;-75
2022/05/04 08:51:01;;;;;;;87.63;57.80;;;19.70;52.90;;;;;;4934983;28;95206;-75
2022/05/04 08:53:27;;;;;;;85.75;57.35;;;19.70;52.60;;;;;;4929780;28;94876;-76
2022/05/04 08:55:54;;;;;;;85.20;57.88;;;19.70;52.80;;;;;;4925856;28;97675;-76
2022/05/04 08:58:19;;;;;;;87.03;57.10;;;19.80;52.60;;;;;;4919393;28;100030;-76
2022/05/04 09:00:45;;;;;;;85.50;56.70;;;19.80;52.70;;;;;;4919672;28;95433;-76
2022/05/04 09:03:11;;;;;;;84.38;57.03;;;19.80;52.60;;;;;;4924041;28;102903;-75
2022/05/04 09:05:42;;;;;;;80.95;55.95;;;19.90;52.50;;;;;;4931861;28;95285;-75
2022/05/04 09:08:09;;;;;;;82.60;57.07;;;19.90;52.70;;;;;;4929513;28;96882;-75
2022/05/04 09:10:39;;;;;;;84.70;57.08;;;20.00;52.70;;;;;;4926492;28;100502;-75
2022/05/04 09:13:06;;;;;;;83.47;57.70;;;20.00;52.00;;;;;;4933500;28;94292;-74
2022/05/04 09:15:34;;;;;;;83.18;58.03;;;20.00;51.40;;;;;;4935823;28;95982;-75
2022/05/04 09:18:06;;;;;;;83.47;56.97;;;20.10;51.30;;;;;;4933333;28;96900;-74
2022/05/04 09:20:53;;;;;;;84.78;57.45;;;20.10;50.60;;;;;;4934893;28;99236;-74
2022/05/04 09:23:28;;;;;;;84.78;58.45;;;20.20;50.80;;;;;;4936838;28;95109;-74
2022/05/04 09:25:56;;;;;;;84.05;58.30;;;20.20;50.40;;;;;;4935092;28;97958;-74
2022/05/04 09:28:26;;;;;;;86.22;57.10;;;20.20;50.60;;;;;;4929371;28;96393;-74
2022/05/04 09:31:03;;;;;;;85.57;58.00;;;20.20;50.90;;;;;;4925251;28;97005;-74
2022/05/04 09:33:32;;;;;;;84.97;57.85;;;20.30;50.80;;;;;;4925338;28;95048;-73
2022/05/04 09:35:59;;;;;;;87.53;57.35;;;20.30;50.80;;;;;;4931445;28;97404;-74
2022/05/04 09:46:52;;;;;;;83.80;56.92;;;20.50;51.00;;;;;;4926659;28;95869;-74
2022/05/04 09:49:18;;;;;;;83.85;57.05;;;20.50;50.20;;;;;;4918989;28;97904;-73
2022/05/04 09:51:53;;;;;;;83.93;57.15;;;20.50;50.00;;;;;;4929489;28;95103;-72
2022/05/04 09:54:28;;;;;;;83.40;57.28;;;20.50;49.60;;;;;;4927261;28;95408;-73
2022/05/04 09:56:58;;;;;;;85.22;57.20;;;20.50;49.80;;;;;;4927308;28;96674;-71
2022/05/04 09:59:26;;;;;;;90.15;57.47;;;20.60;49.40;;;;;;4930045;28;100858;-73
2022/05/04 10:01:53;;;;;;;84.78;57.13;;;20.60;49.90;;;;;;4925264;28;95392;-72
2022/05/04 10:04:20;;;;;;;105.55;61.78;;;20.60;50.10;;;;;;4924667;28;94563;-74
2022/05/04 10:06:48;;;;;;;117.15;62.25;;;20.60;50.60;;;;;;4925403;28;98622;-73
2022/05/04 10:09:14;;;;;;;109.72;64.68;;;20.60;51.20;;;;;;4915403;28;101846;-73
2022/05/04 10:11:40;;;;;;;97.85;62.63;;;20.60;51.20;;;;;;4915384;28;97602;-75
2022/05/04 10:14:12;;;;;;;97.90;60.53;;;20.60;50.80;;;;;;4920117;28;94778;-75
2022/05/04 10:17:13;;;;;;;97.68;60.90;;;20.60;50.80;;;;;;4925021;28;96969;-75
2022/05/04 10:19:50;;;;;;;100.93;61.03;;;20.70;50.80;;;;;;4923229;28;98357;-75
2022/05/04 10:22:39;;;;;;;94.63;59.22;;;20.70;50.70;;;;;;4912771;28;96676;-75
2022/05/04 10:25:06;;;;;;;89.60;58.65;;;20.70;50.30;;;;;;4920738;28;95872;-76
2022/05/04 10:27:39;;;;;;;92.40;59.58;;;20.70;50.30;;;;;;4919304;28;96812;-75
2022/05/04 10:32:51;;;;;;;87.70;58.10;;;20.80;49.70;;;;;;4911230;28;96429;-74
2022/05/04 10:35:17;;;;;;;93.13;58.30;;;20.80;49.20;;;;;;4924753;28;95167;-75
2022/05/04 10:37:54;;;;;;;91.18;58.58;;;20.80;49.40;;;;;;4926930;28;96263;-74
2022/05/04 10:40:27;;;;;;;91.53;57.78;;;20.80;49.50;;;;;;4922449;28;97074;-75
2022/05/04 10:43:01;;;;;;;89.22;58.45;;;20.90;51.20;;;;;;4919040;28;95285;-74
2022/05/04 10:45:33;;;;;;;89.88;58.03;;;20.90;49.50;;;;;;4925921;28;95193;-76
2022/05/04 10:48:18;;;;;;;84.90;57.35;;;21.00;49.30;;;;;;4932727;28;95317;-75
2022/05/04 10:50:50;;;;;;;89.50;57.22;;;21.00;48.80;;;;;;4921148;28;97552;-76
2022/05/04 10:53:36;;;;;;;88.30;57.45;;;21.00;48.50;;;;;;4931703;28;97458;-75
2022/05/04 10:56:09;;;;;;;88.07;57.78;;;21.00;48.50;;;;;;4926045;28;97440;-75
2022/05/04 10:58:47;;;;;;;85.90;57.90;;;21.10;48.10;;;;;;4928176;28;96551;-75
2022/05/04 11:01:12;;;;;;;87.63;57.13;;;21.10;48.20;;;;;;4930558;28;95899;-74
2022/05/04 11:04:08;;;;;;;89.05;57.33;;;21.10;48.40;;;;;;4922885;28;96062;-74
2022/05/04 11:06:35;;;;;;;91.03;57.60;;;21.10;49.40;;;;;;4924135;28;95339;-74
2022/05/04 11:09:07;;;;;;;86.35;57.33;;;21.20;48.20;;;;;;4926779;28;96415;-74
2022/05/04 11:11:33;;;;;;;86.22;56.75;;;21.20;49.00;;;;;;4934082;28;96936;-75
2022/05/04 11:14:00;;;;;;;85.70;56.72;;;21.20;48.40;;;;;;4928642;28;95032;-74
2022/05/04 11:16:26;;;;;;;84.95;56.47;;;21.30;48.70;;;;;;4927841;28;94819;-74
2022/05/04 11:18:52;;;;;;;86.57;56.58;;;21.30;48.90;;;;;;4928842;28;95331;-74
2022/05/04 11:21:18;;;;;;;83.47;56.30;;;21.30;48.20;;;;;;4923924;28;95057;-74
2022/05/04 11:23:49;;;;;;;83.47;56.17;;;21.40;48.40;;;;;;4917206;28;95857;-74
2022/05/04 11:26:26;;;;;;;85.20;56.78;;;21.40;48.90;;;;;;4918382;28;96353;-74
2022/05/04 11:28:53;;;;;;;84.30;56.45;;;21.40;48.50;;;;;;4912752;28;96912;-74
2022/05/04 11:31:20;;;;;;;83.70;56.45;;;21.40;47.80;;;;;;4926383;28;96873;-74
2022/05/04 11:33:49;;;;;;;87.43;56.15;;;21.40;47.30;;;;;;4929037;28;95890;-74
2022/05/04 11:36:20;;;;;;;87.18;55.88;;;21.40;48.90;;;;;;4924230;28;95930;-73
2022/05/04 11:38:47;;;;;;;85.35;56.45;;;21.40;48.00;;;;;;4926133;28;95844;-76
2022/05/04 11:41:14;;;;;;;84.55;55.97;;;21.40;48.40;;;;;;4925590;28;97765;-74
2022/05/04 11:43:40;;;;;;;83.75;56.03;;;21.40;47.70;;;;;;4929570;28;98441;-75
2022/05/04 11:46:09;;;;;;;84.65;55.75;;;21.40;47.00;;;;;;4923236;28;95930;-75
2022/05/04 11:48:42;;;;;;;88.95;56.33;;;21.30;47.80;;;;;;4924155;28;96256;-77
2022/05/04 11:51:08;;;;;;;84.88;56.55;;;21.30;48.00;;;;;;4917524;28;97584;-74
2022/05/04 11:53:34;;;;;;;84.20;57.25;;;21.30;46.40;;;;;;4924874;28;96288;-75
2022/05/04 11:56:03;;;;;;;84.15;56.85;;;21.20;47.60;;;;;;4920211;28;95226;-75
2022/05/04 11:58:30;;;;;;;93.13;56.65;;;21.10;46.80;;;;;;4914717;28;95481;-75
2022/05/04 12:00:56;;;;;;;84.35;55.90;;;21.10;46.60;;;;;;4922790;28;98653;-74
2022/05/04 12:03:25;;;;;;;81.88;56.05;;;21.10;46.50;;;;;;4928470;28;95496;-74
2022/05/04 12:05:53;;;;;;;83.90;56.75;;;21.10;46.10;;;;;;4927218;28;94719;-75
2022/05/04 12:08:20;;;;;;;83.05;56.67;;;21.10;46.80;;;;;;4934696;28;97091;-75
2022/05/04 12:10:48;;;;;;;83.55;56.45;;;21.10;46.40;;;;;;4928271;28;95484;-76
2022/05/04 12:13:15;;;;;;;81.80;55.40;;;21.10;46.50;;;;;;4928597;28;95787;-76
2022/05/04 12:15:42;;;;;;;84.68;55.72;;;21.20;46.80;;;;;;4926918;28;95894;-74
2022/05/04 12:18:10;;;;;;;83.05;56.03;;;21.20;46.50;;;;;;4920506;28;102017;-73
2022/05/04 12:20:35;;;;;;;80.30;55.42;;;21.30;47.20;;;;;;4900686;28;96326;-75
2022/05/04 12:23:02;;;;;;;84.03;56.15;;;21.30;47.00;;;;;;4921204;28;97175;-75
2022/05/04 12:25:28;;;;;;;81.97;55.40;;;21.30;48.40;;;;;;4929173;28;94877;-76
2022/05/04 12:27:56;;;;;;;81.15;55.25;;;21.40;47.40;;;;;;4924284;28;101617;-75
2022/05/04 12:33:09;;;;;;;82.40;55.30;;;21.40;47.40;;;;;;4926524;28;94875;-75
2022/05/04 12:35:43;;;;;;;80.60;55.38;;;21.40;47.30;;;;;;4924301;28;96844;-74
2022/05/04 12:38:18;;;;;;;82.18;55.13;;;21.40;47.60;;;;;;4919993;28;96784;-74
2022/05/04 12:40:44;;;;;;;82.30;55.30;;;21.40;47.30;;;;;;4913102;28;95536;-76
2022/05/04 12:43:10;;;;;;;85.47;56.28;;;21.50;47.10;;;;;;4918628;28;96855;-76
2022/05/04 12:45:37;;;;;;;85.63;55.08;;;21.50;47.70;;;;;;4923951;28;97026;-76
2022/05/04 12:48:09;;;;;;;84.47;55.85;;;21.50;47.60;;;;;;4919173;28;95690;-75
2022/05/04 12:50:36;;;;;;;82.05;55.47;;;21.50;47.10;;;;;;4914577;28;97597;-77
2022/05/04 12:53:02;;;;;;;84.13;55.33;;;21.50;46.60;;;;;;4923212;28;96937;-76
2022/05/04 12:58:13;;;;;;;81.63;55.35;;;21.50;46.50;;;;;;4925843;28;97083;-76
2022/05/04 13:00:39;;;;;;;82.82;55.38;;;21.50;47.60;;;;;;4930376;28;95295;-75
2022/05/04 13:03:08;;;;;;;84.18;55.92;;;21.50;47.30;;;;;;4924585;28;100261;-74
2022/05/04 13:05:34;;;;;;;81.55;55.63;;;21.60;47.70;;;;;;4923607;28;96357;-74